Time;durP1;ratioP1;P1;durP2;ratioP2;P2;SDS_P1;SDS_P2;PMS_P1;PMS_P2;Temp;Humidity;BMP_temperature;BMP_pressure;BME280_temperature;BME280_humidity;BME280_pressure;Samples;Min_cycle;Max_cycle;Signal;HPM_P1;HPM_P2
2023/05/31 00:01:46;;;;;;;4.10;2.73;;;12.50;99.90;;;;;;4995250;28;20081;-72
2023/05/31 00:04:12;;;;;;;5.50;1.98;;;12.50;99.90;;;;;;4994460;28;20026;-72
2023/05/31 00:06:39;;;;;;;7.32;2.30;;;12.50;99.90;;;;;;4995391;28;20033;-72
2023/05/31 00:09:05;;;;;;;3.13;1.90;;;12.40;99.90;;;;;;4995491;28;20117;-72
2023/05/31 00:11:30;;;;;;;4.75;2.25;;;12.40;99.90;;;;;;4995294;28;20173;-72
2023/05/31 00:13:57;;;;;;;5.15;2.35;;;12.40;99.90;;;;;;4995319;28;20065;-72
2023/05/31 00:16:22;;;;;;;6.30;2.25;;;12.30;99.90;;;;;;4995258;28;20041;-72
2023/05/31 00:18:48;;;;;;;6.60;2.67;;;12.30;99.90;;;;;;4993813;28;20038;-72
2023/05/31 00:21:14;;;;;;;4.85;2.70;;;12.30;99.90;;;;;;4995050;28;20053;-74
2023/05/31 00:23:40;;;;;;;3.15;2.10;;;12.30;99.90;;;;;;4994809;28;20038;-73
2023/05/31 00:26:07;;;;;;;6.65;2.25;;;12.30;99.90;;;;;;4995083;28;20029;-73
2023/05/31 00:28:33;;;;;;;6.05;2.30;;;12.30;99.90;;;;;;4995022;28;20399;-73
2023/05/31 00:30:58;;;;;;;8.63;2.30;;;12.30;99.90;;;;;;4980665;28;20037;-73
2023/05/31 00:33:24;;;;;;;3.60;2.10;;;12.20;99.90;;;;;;4975528;28;20447;-72
2023/05/31 00:35:50;;;;;;;6.63;2.33;;;12.20;99.90;;;;;;4989885;28;20043;-72
2023/05/31 00:38:16;;;;;;;4.22;2.53;;;12.20;99.90;;;;;;4980884;28;20092;-72
2023/05/31 00:40:41;;;;;;;5.55;2.67;;;12.20;99.90;;;;;;4994885;28;20394;-72
2023/05/31 00:43:07;;;;;;;4.30;2.65;;;12.20;99.90;;;;;;4993583;28;20038;-71
2023/05/31 00:45:33;;;;;;;4.03;2.53;;;12.20;99.90;;;;;;4994804;28;20483;-72
2023/05/31 00:48:01;;;;;;;8.30;2.42;;;12.10;99.90;;;;;;4994611;28;20068;-73
2023/05/31 00:50:27;;;;;;;7.97;2.72;;;12.00;99.90;;;;;;4994472;28;20038;-72
2023/05/31 00:52:55;;;;;;;5.90;2.80;;;11.90;99.90;;;;;;4992239;28;20049;-72
2023/05/31 00:55:21;;;;;;;4.97;2.88;;;11.90;99.90;;;;;;4994445;28;20022;-72
2023/05/31 00:57:47;;;;;;;6.18;2.53;;;11.90;99.90;;;;;;4994590;28;20043;-73
2023/05/31 01:00:15;;;;;;;8.65;3.03;;;11.80;99.90;;;;;;4994182;28;20038;-73
2023/05/31 01:02:41;;;;;;;4.32;2.83;;;11.80;99.90;;;;;;4994160;28;20027;-72
2023/05/31 01:05:08;;;;;;;3.22;2.28;;;11.80;99.90;;;;;;4993703;28;20026;-73
2023/05/31 01:07:35;;;;;;;6.90;2.88;;;11.80;99.90;;;;;;4994319;28;20040;-73
2023/05/31 01:10:02;;;;;;;7.32;3.10;;;11.80;99.90;;;;;;4994179;28;20487;-72
2023/05/31 01:12:42;;;;;;;12.15;2.85;;;11.80;99.90;;;;;;4993264;28;20037;-73
2023/05/31 01:15:24;;;;;;;8.05;3.30;;;11.80;99.90;;;;;;4994313;28;20105;-72
2023/05/31 01:17:59;;;;;;;5.30;3.08;;;11.80;99.90;;;;;;4972467;28;20117;-72
2023/05/31 01:20:31;;;;;;;3.83;2.53;;;11.80;99.90;;;;;;4972610;28;20585;-72
2023/05/31 01:23:18;;;;;;;7.78;2.88;;;11.80;99.90;;;;;;4972648;28;20043;-72
2023/05/31 01:26:05;;;;;;;5.05;3.10;;;11.80;99.90;;;;;;4972542;28;20488;-72
2023/05/31 01:28:36;;;;;;;5.70;3.07;;;11.80;99.90;;;;;;4956216;28;20488;-73
2023/05/31 01:31:06;;;;;;;5.10;2.60;;;11.70;99.90;;;;;;4954393;28;20097;-72
2023/05/31 01:33:34;;;;;;;3.90;2.50;;;11.70;99.90;;;;;;4953105;29;20183;-72
2023/05/31 01:36:01;;;;;;;6.22;2.67;;;11.70;99.90;;;;;;4952891;29;20051;-72
2023/05/31 01:38:27;;;;;;;5.60;2.55;;;11.60;99.90;;;;;;4952706;29;20047;-72
2023/05/31 01:40:57;;;;;;;6.95;2.88;;;11.60;99.90;;;;;;4952976;29;20094;-73
2023/05/31 01:43:25;;;;;;;4.93;2.85;;;11.50;99.90;;;;;;4952943;29;20490;-72
2023/05/31 01:45:53;;;;;;;;;;;11.60;99.90;;;;;;4955526;28;20051;-72
2023/05/31 01:48:19;;;;;;;7.72;4.03;;;11.50;99.90;;;;;;4964925;28;20345;-71
2023/05/31 01:50:45;;;;;;;10.65;3.17;;;11.50;99.90;;;;;;4993673;28;20077;-72
2023/05/31 01:53:11;;;;;;;10.68;3.00;;;11.50;99.90;;;;;;4993699;28;20101;-72
2023/05/31 01:55:37;;;;;;;4.35;2.78;;;11.40;99.90;;;;;;4993667;28;20110;-73
2023/05/31 01:58:05;;;;;;;5.47;2.60;;;11.40;99.90;;;;;;4993517;28;20444;-72
2023/05/31 02:00:31;;;;;;;10.15;3.08;;;11.40;99.90;;;;;;4993589;28;20034;-72
2023/05/31 02:02:57;;;;;;;5.97;2.58;;;11.40;99.90;;;;;;4993405;28;20034;-72
2023/05/31 02:05:23;;;;;;;6.82;2.92;;;11.40;99.90;;;;;;4994049;28;20030;-72
2023/05/31 02:07:49;;;;;;;8.90;3.10;;;11.30;99.90;;;;;;5008587;28;20030;-72
2023/05/31 02:10:15;;;;;;;4.13;2.90;;;11.30;99.90;;;;;;4993374;28;20109;-72
2023/05/31 02:12:41;;;;;;;5.20;2.40;;;11.30;99.90;;;;;;4993423;28;20041;-72
2023/05/31 02:15:12;;;;;;;8.68;2.72;;;11.30;99.90;;;;;;4993398;28;20030;-72
2023/05/31 02:17:43;;;;;;;8.50;2.80;;;11.30;99.90;;;;;;4992189;28;20430;-72
2023/05/31 02:20:12;;;;;;;4.75;2.83;;;11.40;99.90;;;;;;4993257;28;20055;-73
2023/05/31 02:22:42;;;;;;;6.28;3.15;;;11.30;99.90;;;;;;4993326;28;20030;-72
2023/05/31 02:25:12;;;;;;;4.13;2.97;;;11.30;99.90;;;;;;4995931;28;20064;-73
2023/05/31 02:27:39;;;;;;;6.43;3.90;;;11.30;99.90;;;;;;4997605;28;20023;-72
2023/05/31 02:30:06;;;;;;;6.15;2.95;;;11.20;99.90;;;;;;4997067;28;20435;-71
2023/05/31 02:32:38;;;;;;;4.10;2.43;;;11.20;99.90;;;;;;4997181;28;20030;-73
2023/05/31 02:35:05;;;;;;;5.03;2.85;;;11.20;99.90;;;;;;4997223;28;20054;-72
2023/05/31 02:37:31;;;;;;;4.07;2.75;;;11.20;99.90;;;;;;4996990;28;20042;-72
2023/05/31 02:39:57;;;;;;;4.35;2.83;;;11.20;99.90;;;;;;4996797;28;20046;-71
2023/05/31 02:42:23;;;;;;;5.00;2.80;;;11.20;99.90;;;;;;4996984;28;20026;-72
2023/05/31 02:44:48;;;;;;;4.90;3.00;;;11.20;99.90;;;;;;4996958;28;20622;-71
2023/05/31 02:47:14;;;;;;;9.23;2.63;;;11.20;99.90;;;;;;4996881;28;20022;-71
2023/05/31 02:49:39;;;;;;;6.30;2.70;;;11.20;99.90;;;;;;4996860;28;20034;-72
2023/05/31 02:52:05;;;;;;;9.43;2.72;;;11.20;99.90;;;;;;4995551;28;20076;-71
2023/05/31 02:54:31;;;;;;;5.03;2.45;;;11.20;99.90;;;;;;4996613;28;20546;-71
2023/05/31 02:56:57;;;;;;;4.85;2.72;;;11.20;99.90;;;;;;4996750;28;20391;-72
2023/05/31 02:59:23;;;;;;;7.07;3.28;;;11.20;99.90;;;;;;4996664;28;20066;-72
2023/05/31 03:01:49;;;;;;;6.10;2.40;;;11.10;99.90;;;;;;4996686;28;20042;-72
2023/05/31 03:04:15;;;;;;;4.38;2.72;;;11.10;99.90;;;;;;4996572;28;20041;-72
2023/05/31 03:06:42;;;;;;;8.98;3.35;;;11.00;99.90;;;;;;4996481;28;20073;-71
2023/05/31 03:09:08;;;;;;;6.30;2.65;;;11.00;99.90;;;;;;4996451;28;20034;-72
2023/05/31 03:11:34;;;;;;;8.60;3.20;;;11.00;99.90;;;;;;4995290;28;20077;-72
2023/05/31 03:13:59;;;;;;;5.05;3.20;;;10.90;99.90;;;;;;4996510;28;20030;-72
2023/05/31 03:16:25;;;;;;;4.95;2.53;;;10.90;99.90;;;;;;4996439;28;20030;-72
2023/05/31 03:18:51;;;;;;;8.43;2.92;;;10.90;99.90;;;;;;4996255;28;20129;-73
2023/05/31 03:21:17;;;;;;;4.50;2.67;;;10.80;99.90;;;;;;4996285;28;20546;-73
2023/05/31 03:23:42;;;;;;;9.48;3.70;;;10.80;99.90;;;;;;4996264;28;20050;-71
2023/05/31 03:26:08;;;;;;;4.82;2.65;;;10.90;99.90;;;;;;4996208;28;20029;-71
2023/05/31 03:28:33;;;;;;;7.22;2.95;;;10.90;99.90;;;;;;4996053;28;20034;-72
2023/05/31 03:30:59;;;;;;;5.50;2.97;;;10.90;99.90;;;;;;4996088;28;20486;-72
2023/05/31 03:33:25;;;;;;;14.10;3.45;;;10.80;99.90;;;;;;4995594;28;20038;-72
2023/05/31 03:35:51;;;;;;;6.25;2.80;;;10.90;99.90;;;;;;4995024;28;20030;-71
2023/05/31 03:38:16;;;;;;;7.50;3.35;;;10.80;99.90;;;;;;4995748;28;20518;-72
2023/05/31 03:40:42;;;;;;;10.68;2.90;;;10.80;99.90;;;;;;4995947;28;20034;-72
2023/05/31 03:43:07;;;;;;;7.13;2.95;;;10.70;99.90;;;;;;4995934;28;20040;-72
2023/05/31 03:45:33;;;;;;;8.95;3.90;;;10.70;99.90;;;;;;4995828;28;20442;-71
2023/05/31 03:47:59;;;;;;;5.38;2.72;;;10.70;99.90;;;;;;4995836;28;20030;-72
2023/05/31 03:50:24;;;;;;;5.93;3.08;;;10.70;99.90;;;;;;4995775;28;20034;-72
2023/05/31 03:52:50;;;;;;;5.28;2.50;;;10.80;99.90;;;;;;4995750;28;20038;-72
2023/05/31 03:55:16;;;;;;;9.02;3.47;;;10.80;99.90;;;;;;4995663;28;20045;-72
2023/05/31 03:57:41;;;;;;;7.05;3.47;;;10.80;99.90;;;;;;4995571;28;20061;-72
2023/05/31 04:00:10;;;;;;;8.40;2.90;;;10.70;99.90;;;;;;4995477;28;20077;-72
2023/05/31 04:02:37;;;;;;;9.90;3.30;;;10.70;99.90;;;;;;4995402;28;20018;-72
2023/05/31 04:05:04;;;;;;;7.30;3.15;;;10.70;99.90;;;;;;4995449;28;20018;-72
2023/05/31 04:07:29;;;;;;;10.35;3.22;;;10.70;99.90;;;;;;4995458;28;20097;-71
2023/05/31 04:09:55;;;;;;;5.60;3.03;;;10.70;99.90;;;;;;4995370;28;20110;-72
2023/05/31 04:12:21;;;;;;;7.63;3.50;;;10.70;99.90;;;;;;4995256;28;20019;-72
2023/05/31 04:14:46;;;;;;;8.10;3.50;;;10.70;99.90;;;;;;4995263;28;20031;-72
2023/05/31 04:17:12;;;;;;;6.65;3.67;;;10.70;99.90;;;;;;4995203;28;20522;-71
2023/05/31 04:19:37;;;;;;;8.27;3.20;;;10.70;99.90;;;;;;4994900;28;20480;-72
2023/05/31 04:22:03;;;;;;;9.43;3.63;;;10.70;99.90;;;;;;4995136;28;20022;-72
2023/05/31 04:24:29;;;;;;;6.50;3.28;;;10.80;99.90;;;;;;4995090;28;20030;-72
2023/05/31 04:26:55;;;;;;;10.65;3.45;;;10.80;99.90;;;;;;4995051;28;20022;-71
2023/05/31 04:29:21;;;;;;;6.80;3.55;;;10.80;99.90;;;;;;4991978;28;20023;-71
2023/05/31 04:31:47;;;;;;;8.48;3.35;;;10.80;99.90;;;;;;4994982;28;20076;-72
2023/05/31 04:34:17;;;;;;;6.47;3.25;;;10.80;99.90;;;;;;4994953;28;20030;-73
2023/05/31 04:36:44;;;;;;;9.82;3.28;;;10.80;99.90;;;;;;4994778;28;20023;-72
2023/05/31 04:39:14;;;;;;;11.57;3.58;;;10.80;99.90;;;;;;4994672;28;20057;-72
2023/05/31 04:41:40;;;;;;;5.68;3.40;;;10.80;99.90;;;;;;4994859;28;20054;-72
2023/05/31 04:44:06;;;;;;;7.47;3.30;;;10.80;99.90;;;;;;4994691;28;20026;-72
2023/05/31 04:46:32;;;;;;;6.60;3.50;;;10.90;99.90;;;;;;4994695;28;20018;-72
2023/05/31 04:48:58;;;;;;;6.05;3.75;;;11.00;99.90;;;;;;4993617;28;20026;-73
2023/05/31 04:51:24;;;;;;;11.45;3.85;;;11.00;99.90;;;;;;4994523;28;20034;-72
2023/05/31 04:53:49;;;;;;;9.20;3.85;;;11.10;99.90;;;;;;4994370;28;20030;-73
2023/05/31 04:56:15;;;;;;;10.98;3.67;;;11.10;99.90;;;;;;4994583;28;20507;-72
2023/05/31 04:58:41;;;;;;;5.10;3.70;;;11.20;99.90;;;;;;4994400;28;20058;-73
2023/05/31 05:01:07;;;;;;;10.60;3.88;;;11.30;99.90;;;;;;4994449;28;20407;-72
2023/05/31 05:03:33;;;;;;;10.75;4.47;;;11.30;99.90;;;;;;4994352;28;20023;-73
2023/05/31 05:06:12;;;;;;;8.85;3.97;;;11.30;99.90;;;;;;4994333;28;20078;-72
2023/05/31 05:08:38;;;;;;;8.68;4.13;;;11.30;99.90;;;;;;4994298;28;20026;-72
2023/05/31 05:11:03;;;;;;;13.07;4.32;;;11.30;99.90;;;;;;4993947;28;20029;-72
2023/05/31 05:13:30;;;;;;;12.55;4.20;;;11.40;99.90;;;;;;4993888;28;20039;-73
2023/05/31 05:15:55;;;;;;;13.18;3.95;;;11.40;99.90;;;;;;4994162;28;20023;-73
2023/05/31 05:18:21;;;;;;;11.60;4.95;;;11.50;99.90;;;;;;4994084;28;20029;-71
2023/05/31 05:20:46;;;;;;;7.47;3.85;;;11.50;99.90;;;;;;4992688;28;20038;-72
2023/05/31 05:23:12;;;;;;;9.55;3.85;;;11.60;99.90;;;;;;4994097;28;20026;-72
2023/05/31 05:25:38;;;;;;;7.30;4.45;;;11.60;99.90;;;;;;4993999;28;20026;-72
2023/05/31 05:28:03;;;;;;;12.10;4.47;;;11.70;99.90;;;;;;4993985;28;20026;-73
2023/05/31 05:31:03;;;;;;;8.35;4.07;;;11.70;99.90;;;;;;4989076;28;20057;-72
2023/05/31 05:33:29;;;;;;;7.38;3.90;;;11.80;99.90;;;;;;4993975;28;20057;-71
2023/05/31 05:35:54;;;;;;;10.48;4.88;;;11.90;99.90;;;;;;4993940;28;20545;-73
2023/05/31 05:38:20;;;;;;;12.95;4.88;;;12.00;99.90;;;;;;4993391;28;20092;-73
2023/05/31 05:40:46;;;;;;;10.52;4.57;;;12.10;99.90;;;;;;4993896;28;20471;-73
2023/05/31 05:43:12;;;;;;;10.07;4.15;;;12.20;99.90;;;;;;4993815;28;20175;-72
2023/05/31 05:45:38;;;;;;;12.05;5.32;;;12.30;99.90;;;;;;4987046;28;20369;-72
2023/05/31 05:48:03;;;;;;;9.20;4.40;;;12.40;99.90;;;;;;4974361;28;20073;-72
2023/05/31 05:50:29;;;;;;;10.07;4.20;;;12.60;99.90;;;;;;4974309;28;20058;-72
2023/05/31 05:52:55;;;;;;;8.32;4.60;;;12.70;99.90;;;;;;4974417;28;20026;-73
2023/05/31 05:55:20;;;;;;;12.13;4.88;;;12.80;99.90;;;;;;4974190;28;20066;-72
2023/05/31 05:57:51;;;;;;;7.82;4.10;;;12.80;99.90;;;;;;4974189;28;20386;-72
2023/05/31 06:00:17;;;;;;;14.18;4.30;;;12.90;99.90;;;;;;4974151;28;20081;-72
2023/05/31 06:02:43;;;;;;;11.48;5.03;;;13.00;99.90;;;;;;4990607;28;20030;-72
2023/05/31 06:05:09;;;;;;;7.68;4.07;;;13.20;99.90;;;;;;4993524;28;20049;-73
2023/05/31 06:07:35;;;;;;;10.65;4.45;;;13.40;99.90;;;;;;4991510;28;20490;-72
2023/05/31 06:10:02;;;;;;;11.27;4.72;;;13.70;99.90;;;;;;4991331;28;20046;-72
2023/05/31 06:12:29;;;;;;;10.20;3.95;;;13.90;99.90;;;;;;4991373;28;20046;-72
2023/05/31 06:14:56;;;;;;;8.05;4.65;;;14.10;99.90;;;;;;4991478;28;20088;-72
2023/05/31 06:17:22;;;;;;;13.25;4.45;;;14.00;99.90;;;;;;4991542;28;20511;-73
2023/05/31 06:19:48;;;;;;;11.20;5.18;;;13.90;99.90;;;;;;4974952;28;20109;-73
2023/05/31 06:22:14;;;;;;;12.32;4.95;;;14.50;99.90;;;;;;4991464;28;20034;-72
2023/05/31 06:24:41;;;;;;;9.63;4.35;;;15.30;99.90;;;;;;4971919;28;20516;-72
2023/05/31 06:27:08;;;;;;;10.80;4.68;;;15.20;99.90;;;;;;4972259;28;20399;-73
2023/05/31 06:29:36;;;;;;;;;;;15.00;99.90;;;;;;4960637;28;20106;-73
2023/05/31 06:32:02;;;;;;;15.80;4.43;;;14.80;99.90;;;;;;4949961;29;19914;-73
2023/05/31 06:34:28;;;;;;;13.70;5.10;;;14.80;99.90;;;;;;4967695;28;20035;-74
2023/05/31 06:36:55;;;;;;;9.45;4.63;;;14.80;99.90;;;;;;4968311;28;20091;-75
2023/05/31 06:39:22;;;;;;;10.52;4.90;;;14.80;99.90;;;;;;4973223;28;20111;-75
2023/05/31 06:41:47;;;;;;;10.45;4.50;;;14.90;99.90;;;;;;4963742;28;20500;-74
2023/05/31 06:44:13;;;;;;;11.93;4.68;;;15.00;99.90;;;;;;5000045;28;20031;-74
2023/05/31 06:46:39;;;;;;;16.10;4.78;;;15.10;99.90;;;;;;4986305;28;20094;-75
2023/05/31 06:49:05;;;;;;;8.65;3.90;;;15.20;99.90;;;;;;5002738;28;20063;-75
2023/05/31 06:51:31;;;;;;;9.90;4.25;;;15.70;99.90;;;;;;4974426;29;20050;-77
2023/05/31 06:53:58;;;;;;;12.50;5.00;;;16.40;99.90;;;;;;4980975;28;20007;-76
2023/05/31 06:56:23;;;;;;;9.52;4.07;;;16.90;99.90;;;;;;4969376;29;20027;-77
2023/05/31 06:58:49;;;;;;;10.43;4.32;;;17.50;99.90;;;;;;4978982;28;20046;-76
2023/05/31 07:01:15;;;;;;;8.77;4.68;;;18.50;99.90;;;;;;4987918;28;20034;-76
2023/05/31 07:03:40;;;;;;;9.20;3.60;;;20.30;99.90;;;;;;4987318;28;20039;-76
2023/05/31 07:06:06;;;;;;;9.65;4.50;;;21.40;99.90;;;;;;4976116;29;20034;-76
2023/05/31 07:08:32;;;;;;;8.15;3.83;;;22.40;99.90;;;;;;4978504;28;20027;-77
2023/05/31 07:10:57;;;;;;;6.63;3.97;;;22.60;99.90;;;;;;4989240;28;20023;-78
2023/05/31 07:13:23;;;;;;;7.57;4.38;;;22.70;99.90;;;;;;4982071;28;20036;-79
2023/05/31 07:15:50;;;;;;;14.82;4.10;;;22.70;99.90;;;;;;5015754;28;20053;-76
2023/05/31 07:18:16;;;;;;;6.65;3.55;;;22.80;99.90;;;;;;5014811;28;20023;-76
2023/05/31 07:20:41;;;;;;;10.18;4.28;;;22.70;99.90;;;;;;5001654;28;20070;-76
2023/05/31 07:23:07;;;;;;;7.57;3.08;;;22.60;99.90;;;;;;5009987;28;20019;-78
2023/05/31 07:25:33;;;;;;;6.65;3.15;;;22.40;99.90;;;;;;5021264;28;20078;-75
2023/05/31 07:27:58;;;;;;;8.13;3.50;;;22.50;99.90;;;;;;5017218;28;20035;-78
2023/05/31 07:30:25;;;;;;;7.47;4.15;;;22.60;99.90;;;;;;5011379;28;20022;-79
2023/05/31 07:32:50;;;;;;;12.70;3.78;;;22.20;99.90;;;;;;5021613;28;20018;-80
2023/05/31 07:35:16;;;;;;;6.07;3.97;;;22.00;99.90;;;;;;5021598;28;20094;-78
2023/05/31 07:37:42;;;;;;;9.00;3.17;;;21.60;99.90;;;;;;5021317;28;20023;-77
2023/05/31 07:40:08;;;;;;;7.32;3.97;;;21.20;99.90;;;;;;5020579;28;20054;-78
2023/05/31 07:42:34;;;;;;;9.50;4.45;;;20.80;99.90;;;;;;5019956;28;20006;-78
2023/05/31 07:45:00;;;;;;;7.00;3.80;;;20.20;99.90;;;;;;5020853;28;20110;-76
2023/05/31 07:47:25;;;;;;;9.07;3.00;;;19.50;99.90;;;;;;5020458;28;20018;-77
2023/05/31 07:49:51;;;;;;;8.02;3.90;;;18.90;99.90;;;;;;5020437;28;20019;-77
2023/05/31 07:52:21;;;;;;;11.57;4.28;;;18.70;99.90;;;;;;5020082;28;20018;-77
2023/05/31 07:54:51;;;;;;;15.98;4.30;;;18.50;99.90;;;;;;5020479;28;20095;-76
2023/05/31 07:57:17;;;;;;;6.60;3.60;;;18.40;99.90;;;;;;5020510;28;20010;-76
2023/05/31 07:59:43;;;;;;;15.13;3.67;;;18.50;99.90;;;;;;5006693;28;20095;-74
2023/05/31 08:02:10;;;;;;;11.05;3.70;;;18.80;99.90;;;;;;4980987;28;20050;-75
2023/05/31 08:04:36;;;;;;;8.90;4.10;;;19.20;99.90;;;;;;4986538;28;20027;-75
2023/05/31 08:07:02;;;;;;;6.18;3.72;;;19.60;99.90;;;;;;5024339;28;20026;-76
2023/05/31 08:09:28;;;;;;;9.77;3.07;;;19.80;99.90;;;;;;5017538;28;20316;-73
2023/05/31 08:11:54;;;;;;;11.63;4.43;;;19.50;99.90;;;;;;5023797;28;20048;-73
2023/05/31 08:14:20;;;;;;;9.82;3.72;;;19.50;99.90;;;;;;5014293;28;20026;-74
2023/05/31 08:16:49;;;;;;;11.07;2.53;;;19.50;99.90;;;;;;5011496;28;20061;-74
2023/05/31 08:19:14;;;;;;;6.82;3.78;;;19.60;99.90;;;;;;5011407;28;20019;-75
2023/05/31 08:21:40;;;;;;;8.10;3.55;;;19.60;99.90;;;;;;5009006;28;20017;-76
2023/05/31 08:24:06;;;;;;;8.90;3.40;;;19.40;99.90;;;;;;5014699;28;20026;-76
2023/05/31 08:26:33;;;;;;;10.95;3.50;;;19.40;99.90;;;;;;5015281;28;20022;-76
2023/05/31 08:28:59;;;;;;;10.38;3.85;;;19.70;99.90;;;;;;5010523;28;20022;-75
2023/05/31 08:31:24;;;;;;;13.90;4.13;;;20.00;99.90;;;;;;5011787;28;20118;-76
2023/05/31 08:33:58;;;;;;;6.00;3.38;;;20.50;99.90;;;;;;5011724;28;20093;-76
2023/05/31 08:36:25;;;;;;;5.75;3.35;;;20.30;99.90;;;;;;5010386;28;20053;-76
2023/05/31 08:38:51;;;;;;;6.20;3.37;;;20.30;99.90;;;;;;5010740;28;20094;-76
2023/05/31 08:41:18;;;;;;;6.13;3.38;;;20.40;99.90;;;;;;5013644;28;20410;-76
2023/05/31 08:43:44;;;;;;;3.88;2.92;;;20.60;99.90;;;;;;5007009;28;20030;-76
2023/05/31 08:46:11;;;;;;;9.07;3.73;;;20.90;99.90;;;;;;5009526;28;20392;-77
2023/05/31 08:49:02;;;;;;;11.53;4.27;;;21.10;99.90;;;;;;5008159;28;20766;-76
2023/05/31 08:51:28;;;;;;;11.05;4.05;;;20.90;99.90;;;;;;5010228;28;20035;-78
2023/05/31 08:53:56;;;;;;;7.05;3.83;;;21.10;99.90;;;;;;5005759;28;20513;-78
2023/05/31 08:56:26;;;;;;;5.43;3.42;;;21.40;99.90;;;;;;5008588;28;20038;-76
2023/05/31 08:58:53;;;;;;;5.95;3.28;;;21.50;99.90;;;;;;5011675;28;20081;-76
2023/05/31 09:01:19;;;;;;;;;;;21.60;99.90;;;;;;5008128;28;20537;-75
2023/05/31 09:03:45;;;;;;;11.05;3.38;;;21.90;99.90;;;;;;5025517;28;19913;-74
2023/05/31 09:06:11;;;;;;;4.75;3.05;;;22.10;99.90;;;;;;5009867;28;20014;-75
2023/05/31 09:08:38;;;;;;;9.25;3.72;;;22.00;99.90;;;;;;5003617;28;20103;-82
2023/05/31 09:11:07;;;;;;;9.70;3.58;;;21.90;99.90;;;;;;4988249;28;20039;-74
2023/05/31 09:13:33;;;;;;;4.95;3.28;;;22.10;99.90;;;;;;4990628;28;20093;-75
2023/05/31 09:16:01;;;;;;;7.40;4.03;;;21.90;99.90;;;;;;5005587;28;20026;-75
2023/05/31 09:18:31;;;;;;;7.75;3.85;;;21.90;99.90;;;;;;5010285;28;20419;-75
2023/05/31 09:20:57;;;;;;;6.63;3.63;;;21.80;99.90;;;;;;5019441;28;20023;-76
2023/05/31 09:23:23;;;;;;;9.20;3.40;;;21.60;99.90;;;;;;5022586;28;20041;-76
2023/05/31 09:25:52;;;;;;;7.35;2.38;;;21.50;99.90;;;;;;5011849;28;20018;-77
2023/05/31 09:28:19;;;;;;;10.30;3.65;;;21.80;99.90;;;;;;5013451;28;20471;-77
2023/05/31 09:30:45;;;;;;;;;;;22.10;99.90;;;;;;5011127;28;20046;-77
2023/05/31 09:33:13;;;;;;;5.97;3.58;;;22.10;99.90;;;;;;5012411;28;19906;-76
2023/05/31 09:35:56;;;;;;;6.20;3.03;;;22.10;99.90;;;;;;5011866;28;20447;-77
2023/05/31 09:38:34;;;;;;;8.70;3.03;;;21.90;99.90;;;;;;5012190;28;20029;-77
2023/05/31 09:41:20;;;;;;;8.48;3.03;;;22.00;99.90;;;;;;5011258;28;20042;-75
2023/05/31 09:43:47;;;;;;;8.50;3.50;;;21.90;99.90;;;;;;4986401;28;20166;-76
2023/05/31 09:46:14;;;;;;;;;;;21.80;99.90;;;;;;5004968;28;20157;-78
2023/05/31 09:48:40;;;;;;;7.93;3.63;;;21.70;99.90;;;;;;5011297;28;19977;-75
2023/05/31 09:51:09;;;;;;;7.03;3.08;;;21.70;99.90;;;;;;5011158;28;20027;-76
2023/05/31 09:53:43;;;;;;;9.35;3.80;;;21.50;99.90;;;;;;5028284;28;20038;-76
2023/05/31 09:56:18;;;;;;;9.10;3.30;;;21.60;99.90;;;;;;5012642;28;20128;-76
2023/05/31 09:58:45;;;;;;;7.35;3.35;;;21.60;99.90;;;;;;5003180;28;20061;-78
2023/05/31 10:01:10;;;;;;;11.80;3.50;;;21.70;99.90;;;;;;4975151;28;20361;-78
2023/05/31 10:03:38;;;;;;;9.50;4.32;;;21.60;99.90;;;;;;4973294;28;20035;-78
2023/05/31 10:06:04;;;;;;;7.85;3.28;;;21.60;99.90;;;;;;4974921;28;20078;-79
2023/05/31 10:08:31;;;;;;;7.15;3.80;;;21.50;99.90;;;;;;4974561;28;20015;-79
2023/05/31 10:11:02;;;;;;;7.95;3.42;;;21.30;99.90;;;;;;4973142;28;20066;-77
2023/05/31 10:13:30;;;;;;;9.50;3.80;;;21.60;99.90;;;;;;4975017;28;20507;-78
2023/05/31 10:16:06;;;;;;;8.50;3.35;;;21.70;99.90;;;;;;4977724;28;20034;-76
2023/05/31 10:18:33;;;;;;;7.63;3.70;;;21.90;99.90;;;;;;4974734;28;20023;-77
2023/05/31 10:21:03;;;;;;;;;;;22.20;99.90;;;;;;4989944;28;20113;-77
2023/05/31 10:23:32;;;;;;;7.65;3.33;;;22.40;99.90;;;;;;4991827;28;19910;-76
2023/05/31 10:26:15;;;;;;;6.80;3.33;;;22.80;99.90;;;;;;4993631;28;20542;-77
2023/05/31 10:29:25;;;;;;;7.30;2.53;;;22.70;99.90;;;;;;4994041;28;20061;-77
2023/05/31 10:31:54;;;;;;;9.63;3.53;;;22.70;99.90;;;;;;4953204;29;20043;-78
2023/05/31 10:34:25;;;;;;;10.52;3.83;;;22.80;99.90;;;;;;5007331;28;20384;-79
2023/05/31 10:36:53;;;;;;;5.30;3.25;;;22.50;99.90;;;;;;4994648;28;20427;-79
2023/05/31 10:39:27;;;;;;;5.63;2.75;;;22.40;99.90;;;;;;4994015;28;20055;-77
2023/05/31 10:42:18;;;;;;;6.32;2.70;;;22.40;99.90;;;;;;4993712;28;20029;-79
2023/05/31 10:44:56;;;;;;;10.15;2.83;;;22.50;99.90;;;;;;4987076;28;20036;-79
2023/05/31 10:47:32;;;;;;;6.20;2.85;;;22.60;99.90;;;;;;4997486;28;20029;-79
2023/05/31 10:50:01;;;;;;;8.10;3.57;;;22.60;99.90;;;;;;4997390;28;20034;-79
2023/05/31 10:52:32;;;;;;;8.10;3.17;;;22.60;99.90;;;;;;4997430;28;20041;-78
2023/05/31 10:55:17;;;;;;;7.72;2.80;;;22.80;99.90;;;;;;4992567;28;20038;-79
2023/05/31 10:57:43;;;;;;;9.75;3.22;;;22.70;99.90;;;;;;4995221;28;20527;-79
2023/05/31 11:00:11;;;;;;;7.22;3.03;;;22.70;99.90;;;;;;4992786;28;20078;-77
2023/05/31 11:03:00;;;;;;;4.63;2.80;;;22.50;99.90;;;;;;4995697;28;20023;-78
2023/05/31 11:05:27;;;;;;;6.43;2.80;;;22.40;99.90;;;;;;4995796;28;20043;-78
2023/05/31 11:07:54;;;;;;;8.38;3.05;;;22.20;99.90;;;;;;5007561;28;20117;-79
2023/05/31 11:10:29;;;;;;;9.65;3.13;;;22.30;99.90;;;;;;4978756;28;20126;-79
2023/05/31 11:12:57;;;;;;;6.53;3.20;;;22.40;99.90;;;;;;4943922;28;20043;-77
2023/05/31 11:15:39;;;;;;;5.65;2.60;;;22.50;99.90;;;;;;4978455;28;20129;-76
2023/05/31 11:18:09;;;;;;;9.38;3.13;;;22.60;99.90;;;;;;4958994;28;20066;-75
2023/05/31 11:20:36;;;;;;;11.63;3.47;;;22.80;99.90;;;;;;4975994;28;20535;-75
2023/05/31 11:23:23;;;;;;;5.80;2.75;;;23.00;99.90;;;;;;4974876;28;20027;-76
2023/05/31 11:26:08;;;;;;;14.85;3.25;;;22.90;99.90;;;;;;4974285;28;20046;-76
2023/05/31 11:28:55;;;;;;;7.68;2.90;;;23.00;99.90;;;;;;4978061;28;20030;-77
2023/05/31 11:31:39;;;;;;;;;;;23.10;99.90;;;;;;4975397;28;20071;-76
2023/05/31 11:34:18;;;;;;;6.97;2.88;;;23.10;99.90;;;;;;4974827;28;19906;-77
2023/05/31 11:36:44;;;;;;;5.32;2.58;;;23.10;99.90;;;;;;4976319;28;20038;-76
2023/05/31 11:39:10;;;;;;;4.88;2.75;;;22.90;99.90;;;;;;4975047;28;20050;-76
2023/05/31 11:41:36;;;;;;;7.10;2.85;;;22.80;99.90;;;;;;4986928;28;20026;-76
2023/05/31 11:44:03;;;;;;;9.15;2.72;;;22.90;99.90;;;;;;4996825;28;20030;-75
2023/05/31 11:46:29;;;;;;;11.35;3.17;;;23.00;99.90;;;;;;4996278;28;20034;-76
2023/05/31 11:48:57;;;;;;;7.07;2.45;;;22.80;99.90;;;;;;4994779;28;20494;-76
2023/05/31 11:51:23;;;;;;;7.13;2.28;;;22.80;99.90;;;;;;4991297;28;20030;-75
2023/05/31 11:53:56;;;;;;;4.38;2.30;;;23.00;99.90;;;;;;4998802;28;20037;-77
2023/05/31 11:56:33;;;;;;;8.23;2.60;;;23.10;99.90;;;;;;4996180;28;20390;-77
2023/05/31 11:59:00;;;;;;;4.30;2.67;;;23.50;99.90;;;;;;4992388;28;20585;-76
2023/05/31 12:01:26;;;;;;;8.18;3.08;;;23.60;99.90;;;;;;4997025;28;20109;-76
2023/05/31 12:04:01;;;;;;;5.65;2.70;;;23.70;99.90;;;;;;4995719;28;20383;-76
2023/05/31 12:06:28;;;;;;;5.55;2.42;;;24.00;99.90;;;;;;4991845;28;20510;-76
2023/05/31 12:08:54;;;;;;;4.15;2.67;;;23.90;99.90;;;;;;4995446;28;20025;-76
2023/05/31 12:11:21;;;;;;;6.28;2.53;;;23.70;99.90;;;;;;4996143;28;20109;-76
2023/05/31 12:13:48;;;;;;;12.20;3.08;;;23.60;99.90;;;;;;4996194;28;20054;-76
2023/05/31 12:16:15;;;;;;;9.00;3.03;;;23.50;99.90;;;;;;4995094;28;20506;-76
2023/05/31 12:18:41;;;;;;;7.10;2.90;;;23.40;99.90;;;;;;4995492;28;20026;-76
2023/05/31 12:21:08;;;;;;;7.68;3.25;;;23.10;99.90;;;;;;4992891;28;20038;-77
2023/05/31 12:23:51;;;;;;;9.02;2.60;;;23.10;99.90;;;;;;4991308;28;20033;-76
2023/05/31 12:26:17;;;;;;;4.53;2.20;;;23.20;99.90;;;;;;4993092;28;20499;-77
2023/05/31 12:28:43;;;;;;;3.40;2.25;;;23.40;99.90;;;;;;4994447;28;20033;-76
2023/05/31 12:31:08;;;;;;;4.82;2.72;;;23.50;99.90;;;;;;4989908;28;20041;-76
2023/05/31 12:33:36;;;;;;;6.72;3.03;;;23.60;99.90;;;;;;4979007;28;20071;-76
2023/05/31 12:36:03;;;;;;;;;;;23.80;99.90;;;;;;4976302;28;20387;-77
2023/05/31 12:38:29;;;;;;;;;;;23.90;99.90;;;;;;4994909;28;19914;-76
2023/05/31 12:40:55;;;;;;;5.20;2.77;;;23.90;99.90;;;;;;4995340;28;19913;-76
2023/05/31 12:43:22;;;;;;;4.10;2.60;;;24.00;99.90;;;;;;4995065;28;20032;-77
2023/05/31 12:45:52;;;;;;;10.05;2.95;;;23.90;99.90;;;;;;4994925;28;20121;-77
2023/05/31 12:48:23;;;;;;;7.45;3.00;;;24.10;99.90;;;;;;4994825;28;20105;-76
2023/05/31 12:50:48;;;;;;;12.90;2.58;;;23.90;99.90;;;;;;4995121;28;20114;-77
2023/05/31 12:53:15;;;;;;;7.07;3.05;;;23.70;99.90;;;;;;5010289;28;20027;-76